Time;durP1;ratioP1;P1;durP2;ratioP2;P2;SDS_P1;SDS_P2;PMS_P1;PMS_P2;Temp;Humidity;BMP_temperature;BMP_pressure;BME280_temperature;BME280_humidity;BME280_pressure;Samples;Min_cycle;Max_cycle;Signal;HPM_P1;HPM_P2
2022/03/31 00:00:02;;;;;;;18.2;15.5;;;;;;;8.19;70.6875;93384.19;;;;
2022/03/31 00:01:05;;;;;;;18.2;15.5;;;;;;;8.19;70.6875;93384.19;;;;
2022/03/31 00:02:06;;;;;;;18.75;15.5;;;;;;;8.19;70.81348;93375.71;;;;
2022/03/31 00:03:08;;;;;;;18.75;15.5;;;;;;;8.19;70.81348;93375.71;;;;
2022/03/31 00:04:11;;;;;;;18.75;15.5;;;;;;;8.19;70.81348;93375.71;;;;
2022/03/31 00:05:13;;;;;;;18.75;15.5;;;;;;;8.19;70.81348;93375.71;;;;
2022/03/31 00:06:13;;;;;;;18.75;15.5;;;;;;;8.19;70.81348;93375.71;;;;
2022/03/31 00:07:14;;;;;;;18.75;15.5;;;;;;;8.19;70.81348;93375.71;;;;
2022/03/31 00:08:14;;;;;;;18.75;15.5;;;;;;;8.19;70.81348;93375.71;;;;
2022/03/31 00:09:18;;;;;;;18.75;15.5;;;;;;;8.19;70.81348;93375.71;;;;
2022/03/31 00:10:18;;;;;;;18.75;15.5;;;;;;;8.19;70.81348;93375.71;;;;
2022/03/31 00:11:20;;;;;;;18.75;15.5;;;;;;;8.19;70.81348;93375.71;;;;
2022/03/31 00:12:21;;;;;;;18.45;15.25;;;;;;;8.18;70.94141;93371.83;;;;
2022/03/31 00:13:22;;;;;;;18.45;15.25;;;;;;;8.18;70.94141;93371.83;;;;
2022/03/31 00:14:24;;;;;;;18.45;15.25;;;;;;;8.18;70.94141;93371.83;;;;
2022/03/31 00:15:26;;;;;;;18.45;15.25;;;;;;;8.18;70.94141;93371.83;;;;
2022/03/31 00:16:28;;;;;;;18.45;15.25;;;;;;;8.18;70.94141;93371.83;;;;
2022/03/31 00:17:29;;;;;;;18.45;15.25;;;;;;;8.18;70.94141;93371.83;;;;
2022/03/31 00:18:29;;;;;;;18.45;15.25;;;;;;;8.18;70.94141;93371.83;;;;
2022/03/31 00:19:30;;;;;;;18.45;15.25;;;;;;;8.18;70.94141;93371.83;;;;
2022/03/31 00:20:30;;;;;;;18.45;15.25;;;;;;;8.18;70.94141;93371.83;;;;
2022/03/31 00:21:32;;;;;;;18.45;15.25;;;;;;;8.18;70.94141;93371.83;;;;
2022/03/31 00:22:32;;;;;;;18.45;15.25;;;;;;;8.18;70.94141;93371.83;;;;
2022/03/31 00:23:37;;;;;;;19.95;15.8;;;;;;;8.1;70.99121;93364.4;;;;
2022/03/31 00:24:37;;;;;;;19.95;15.8;;;;;;;8.1;70.99121;93364.4;;;;
2022/03/31 00:25:37;;;;;;;19.95;15.8;;;;;;;8.1;70.99121;93364.4;;;;
2022/03/31 00:26:38;;;;;;;19.95;15.8;;;;;;;8.1;70.99121;93364.4;;;;
2022/03/31 00:27:39;;;;;;;19.95;15.8;;;;;;;8.1;70.99121;93364.4;;;;
2022/03/31 00:28:41;;;;;;;19.95;15.8;;;;;;;8.1;70.99121;93364.4;;;;
2022/03/31 00:29:41;;;;;;;19.95;15.8;;;;;;;8.1;70.99121;93364.4;;;;
2022/03/31 00:30:41;;;;;;;19.95;15.8;;;;;;;8.1;70.99121;93364.4;;;;
2022/03/31 00:31:42;;;;;;;19.95;15.8;;;;;;;8.1;70.99121;93364.4;;;;
2022/03/31 00:32:43;;;;;;;19.95;15.8;;;;;;;8.1;70.99121;93364.4;;;;
2022/03/31 00:33:43;;;;;;;19.45;16.5;;;;;;;7.73;71.37695;93349.44;;;;
2022/03/31 00:34:44;;;;;;;19.45;16.5;;;;;;;7.73;71.37695;93349.44;;;;
2022/03/31 00:35:44;;;;;;;19.45;16.5;;;;;;;7.73;71.37695;93349.44;;;;
2022/03/31 00:36:45;;;;;;;19.45;16.5;;;;;;;7.73;71.37695;93349.44;;;;
2022/03/31 00:37:45;;;;;;;19.45;16.5;;;;;;;7.73;71.37695;93349.44;;;;
2022/03/31 00:39:28;;;;;;;19.45;16.5;;;;;;;7.73;71.37695;93349.44;;;;
2022/03/31 00:40:29;;;;;;;19.45;16.5;;;;;;;7.73;71.37695;93349.44;;;;
2022/03/31 00:41:30;;;;;;;19.45;16.5;;;;;;;7.73;71.37695;93349.44;;;;
2022/03/31 00:42:35;;;;;;;19.45;16.5;;;;;;;7.73;71.37695;93349.44;;;;
2022/03/31 00:43:40;;;;;;;19.45;16.5;;;;;;;7.73;71.37695;93349.44;;;;
2022/03/31 00:44:41;;;;;;;19.45;16.5;;;;;;;7.73;71.37695;93349.44;;;;
2022/03/31 00:45:51;;;;;;;19.45;16.5;;;;;;;7.73;71.37695;93349.44;;;;
2022/03/31 00:46:52;;;;;;;19.45;16.5;;;;;;;7.73;71.37695;93349.44;;;;
2022/03/31 00:47:55;;;;;;;19.45;16.5;;;;;;;7.73;71.37695;93349.44;;;;
2022/03/31 00:48:56;;;;;;;19.45;16.5;;;;;;;7.73;71.37695;93349.44;;;;
2022/03/31 00:49:57;;;;;;;19.45;16.5;;;;;;;7.73;71.37695;93349.44;;;;
2022/03/31 00:50:57;;;;;;;19.45;16.5;;;;;;;7.73;71.37695;93349.44;;;;
2022/03/31 00:51:58;;;;;;;19.45;16.5;;;;;;;7.73;71.37695;93349.44;;;;
2022/03/31 00:52:58;;;;;;;19.45;16.5;;;;;;;7.73;71.37695;93349.44;;;;
2022/03/31 00:53:59;;;;;;;19.45;16.5;;;;;;;7.73;71.37695;93349.44;;;;
2022/03/31 00:54:59;;;;;;;22.4;18.15;;;;;;;7.09;72.39941;93347.61;;;;
2022/03/31 00:56:00;;;;;;;22.4;18.15;;;;;;;7.09;72.39941;93347.61;;;;
2022/03/31 00:57:02;;;;;;;22.4;18.15;;;;;;;7.09;72.39941;93347.61;;;;
2022/03/31 00:58:05;;;;;;;22.4;18.15;;;;;;;7.09;72.39941;93347.61;;;;
2022/03/31 00:59:06;;;;;;;22.4;18.15;;;;;;;7.09;72.39941;93347.61;;;;
2022/03/31 01:00:09;;;;;;;22.4;18.15;;;;;;;7.09;72.39941;93347.61;;;;
2022/03/31 01:01:11;;;;;;;22.4;18.15;;;;;;;7.09;72.39941;93347.61;;;;
2022/03/31 01:02:14;;;;;;;22.4;18.15;;;;;;;7.09;72.39941;93347.61;;;;
2022/03/31 01:03:15;;;;;;;22.4;18.15;;;;;;;7.09;72.39941;93347.61;;;;
2022/03/31 01:04:15;;;;;;;22.4;18.15;;;;;;;7.09;72.39941;93347.61;;;;
2022/03/31 01:05:15;;;;;;;22.4;18.15;;;;;;;7.09;72.39941;93347.61;;;;
2022/03/31 01:06:16;;;;;;;22.4;18.15;;;;;;;7.09;72.39941;93347.61;;;;
2022/03/31 01:07:17;;;;;;;22.4;18.15;;;;;;;7.09;72.39941;93347.61;;;;
2022/03/31 01:08:17;;;;;;;22.4;18.15;;;;;;;7.09;72.39941;93347.61;;;;
2022/03/31 01:09:18;;;;;;;22.4;18.15;;;;;;;7.09;72.39941;93347.61;;;;
2022/03/31 01:10:19;;;;;;;22.4;18.15;;;;;;;7.09;72.39941;93347.61;;;;
2022/03/31 01:11:21;;;;;;;22.4;18.15;;;;;;;7.09;72.39941;93347.61;;;;
2022/03/31 01:12:22;;;;;;;22.4;18.15;;;;;;;7.09;72.39941;93347.61;;;;
2022/03/31 01:13:22;;;;;;;22.4;18.15;;;;;;;7.09;72.39941;93347.61;;;;
2022/03/31 01:14:23;;;;;;;22.4;18.15;;;;;;;7.09;72.39941;93347.61;;;;
2022/03/31 01:15:23;;;;;;;22.4;18.15;;;;;;;7.09;72.39941;93347.61;;;;
2022/03/31 01:16:24;;;;;;;24.4;19.3;;;;;;;7.34;72.63086;93315.12;;;;
2022/03/31 01:17:25;;;;;;;24.4;19.3;;;;;;;7.34;72.63086;93315.12;;;;
2022/03/31 01:18:25;;;;;;;24.4;19.3;;;;;;;7.34;72.63086;93315.12;;;;
2022/03/31 01:19:26;;;;;;;24.4;19.3;;;;;;;7.34;72.63086;93315.12;;;;
2022/03/31 01:20:26;;;;;;;24.4;19.3;;;;;;;7.34;72.63086;93315.12;;;;
2022/03/31 01:21:27;;;;;;;24.4;19.3;;;;;;;7.34;72.63086;93315.12;;;;
2022/03/31 01:22:28;;;;;;;24.4;19.3;;;;;;;7.34;72.63086;93315.12;;;;
2022/03/31 01:23:30;;;;;;;24.4;19.3;;;;;;;7.34;72.63086;93315.12;;;;
2022/03/31 01:24:32;;;;;;;24.4;19.3;;;;;;;7.34;72.63086;93315.12;;;;
2022/03/31 01:25:34;;;;;;;24.4;19.3;;;;;;;7.34;72.63086;93315.12;;;;
2022/03/31 01:26:34;;;;;;;24.4;19.3;;;;;;;7.34;72.63086;93315.12;;;;
2022/03/31 01:27:35;;;;;;;29.55;23.15;;;;;;;7.41;72.6123;93299.01;;;;
2022/03/31 01:28:38;;;;;;;29.55;23.15;;;;;;;7.41;72.6123;93299.01;;;;
2022/03/31 01:29:41;;;;;;;29.55;23.15;;;;;;;7.41;72.6123;93299.01;;;;
2022/03/31 01:30:41;;;;;;;29.55;23.15;;;;;;;7.41;72.6123;93299.01;;;;
2022/03/31 01:31:42;;;;;;;29.55;23.15;;;;;;;7.41;72.6123;93299.01;;;;
2022/03/31 01:32:43;;;;;;;29.55;23.15;;;;;;;7.41;72.6123;93299.01;;;;
2022/03/31 01:33:45;;;;;;;29.55;23.15;;;;;;;7.41;72.6123;93299.01;;;;
2022/03/31 01:34:46;;;;;;;29.55;23.15;;;;;;;7.41;72.6123;93299.01;;;;
2022/03/31 01:35:46;;;;;;;29.55;23.15;;;;;;;7.41;72.6123;93299.01;;;;
2022/03/31 01:36:47;;;;;;;29.55;23.15;;;;;;;7.41;72.6123;93299.01;;;;
2022/03/31 01:37:47;;;;;;;29.55;23.15;;;;;;;7.41;72.6123;93299.01;;;;
2022/03/31 01:38:48;;;;;;;29.55;23.15;;;;;;;7.41;72.6123;93299.01;;;;
2022/03/31 01:39:48;;;;;;;29.55;23.15;;;;;;;7.41;72.6123;93299.01;;;;
2022/03/31 01:40:50;;;;;;;29.55;23.15;;;;;;;7.41;72.6123;93299.01;;;;
2022/03/31 01:41:50;;;;;;;29.55;23.15;;;;;;;7.41;72.6123;93299.01;;;;
2022/03/31 01:42:51;;;;;;;29.55;23.15;;;;;;;7.41;72.6123;93299.01;;;;
2022/03/31 01:43:52;;;;;;;29.55;23.15;;;;;;;7.41;72.6123;93299.01;;;;
2022/03/31 01:44:52;;;;;;;29.55;23.15;;;;;;;7.41;72.6123;93299.01;;;;
2022/03/31 01:45:53;;;;;;;29.55;23.15;;;;;;;7.41;72.6123;93299.01;;;;
2022/03/31 01:46:54;;;;;;;29.55;23.15;;;;;;;7.41;72.6123;93299.01;;;;
2022/03/31 01:47:54;;;;;;;29.55;23.15;;;;;;;7.41;72.6123;93299.01;;;;
2022/03/31 01:48:55;;;;;;;33.45;25.5;;;;;;;7.6;72.86523;93285.5;;;;
2022/03/31 01:49:55;;;;;;;33.45;25.5;;;;;;;7.6;72.86523;93285.5;;;;
2022/03/31 01:50:57;;;;;;;33.45;25.5;;;;;;;7.6;72.86523;93285.5;;;;
2022/03/31 01:51:57;;;;;;;33.45;25.5;;;;;;;7.6;72.86523;93285.5;;;;
2022/03/31 01:52:58;;;;;;;33.45;25.5;;;;;;;7.6;72.86523;93285.5;;;;
2022/03/31 01:53:58;;;;;;;33.45;25.5;;;;;;;7.6;72.86523;93285.5;;;;
2022/03/31 01:54:59;;;;;;;33.45;25.5;;;;;;;7.6;72.86523;93285.5;;;;
2022/03/31 01:55:59;;;;;;;33.45;25.5;;;;;;;7.6;72.86523;93285.5;;;;
2022/03/31 01:56:59;;;;;;;33.45;25.5;;;;;;;7.6;72.86523;93285.5;;;;
2022/03/31 01:58:00;;;;;;;33.45;25.5;;;;;;;7.6;72.86523;93285.5;;;;
2022/03/31 01:59:01;;;;;;;34.05;26.15;;;;;;;7.55;73.01855;93268.44;;;;
2022/03/31 02:00:02;;;;;;;34.05;26.15;;;;;;;7.55;73.01855;93268.44;;;;
2022/03/31 02:01:06;;;;;;;34.05;26.15;;;;;;;7.55;73.01855;93268.44;;;;
2022/03/31 02:02:06;;;;;;;34.05;26.15;;;;;;;7.55;73.01855;93268.44;;;;
2022/03/31 02:03:08;;;;;;;34.05;26.15;;;;;;;7.55;73.01855;93268.44;;;;
2022/03/31 02:04:09;;;;;;;34.05;26.15;;;;;;;7.55;73.01855;93268.44;;;;
2022/03/31 02:05:09;;;;;;;34.05;26.15;;;;;;;7.55;73.01855;93268.44;;;;
2022/03/31 02:06:10;;;;;;;34.05;26.15;;;;;;;7.55;73.01855;93268.44;;;;
2022/03/31 02:07:11;;;;;;;34.05;26.15;;;;;;;7.55;73.01855;93268.44;;;;
2022/03/31 02:08:12;;;;;;;34.05;26.15;;;;;;;7.55;73.01855;93268.44;;;;
2022/03/31 02:09:12;;;;;;;34.05;26.15;;;;;;;7.55;73.01855;93268.44;;;;
2022/03/31 02:10:12;;;;;;;34.55;26.95;;;;;;;7.51;73.3291;93260.12;;;;
2022/03/31 02:11:13;;;;;;;34.55;26.95;;;;;;;7.51;73.3291;93260.12;;;;
2022/03/31 02:12:14;;;;;;;34.55;26.95;;;;;;;7.51;73.3291;93260.12;;;;
2022/03/31 02:13:15;;;;;;;34.55;26.95;;;;;;;7.51;73.3291;93260.12;;;;
2022/03/31 02:14:15;;;;;;;34.55;26.95;;;;;;;7.51;73.3291;93260.12;;;;
2022/03/31 02:15:16;;;;;;;34.55;26.95;;;;;;;7.51;73.3291;93260.12;;;;
2022/03/31 02:16:16;;;;;;;34.55;26.95;;;;;;;7.51;73.3291;93260.12;;;;
2022/03/31 02:17:17;;;;;;;34.55;26.95;;;;;;;7.51;73.3291;93260.12;;;;
2022/03/31 02:18:18;;;;;;;34.55;26.95;;;;;;;7.51;73.3291;93260.12;;;;
2022/03/31 02:19:18;;;;;;;34.55;26.95;;;;;;;7.51;73.3291;93260.12;;;;
2022/03/31 02:20:19;;;;;;;34.75;26.85;;;;;;;7.43;73.59277;93250.45;;;;
2022/03/31 02:21:19;;;;;;;34.75;26.85;;;;;;;7.43;73.59277;93250.45;;;;
2022/03/31 02:22:19;;;;;;;34.75;26.85;;;;;;;7.43;73.59277;93250.45;;;;
2022/03/31 02:23:20;;;;;;;34.75;26.85;;;;;;;7.43;73.59277;93250.45;;;;
2022/03/31 02:24:21;;;;;;;34.75;26.85;;;;;;;7.43;73.59277;93250.45;;;;
2022/03/31 02:25:21;;;;;;;34.75;26.85;;;;;;;7.43;73.59277;93250.45;;;;
2022/03/31 02:26:22;;;;;;;34.75;26.85;;;;;;;7.43;73.59277;93250.45;;;;
2022/03/31 02:27:22;;;;;;;34.75;26.85;;;;;;;7.43;73.59277;93250.45;;;;
2022/03/31 02:28:23;;;;;;;34.75;26.85;;;;;;;7.43;73.59277;93250.45;;;;
2022/03/31 02:29:23;;;;;;;34.75;26.85;;;;;;;7.43;73.59277;93250.45;;;;
2022/03/31 02:30:24;;;;;;;34.75;26.85;;;;;;;7.43;73.59277;93250.45;;;;
2022/03/31 02:31:25;;;;;;;35.5;26.65;;;;;;;7.12;73.93262;93216.55;;;;
2022/03/31 02:32:25;;;;;;;35.5;26.65;;;;;;;7.12;73.93262;93216.55;;;;
2022/03/31 02:33:26;;;;;;;35.5;26.65;;;;;;;7.12;73.93262;93216.55;;;;
2022/03/31 02:34:26;;;;;;;35.5;26.65;;;;;;;7.12;73.93262;93216.55;;;;
2022/03/31 02:35:27;;;;;;;35.5;26.65;;;;;;;7.12;73.93262;93216.55;;;;
2022/03/31 02:36:27;;;;;;;35.5;26.65;;;;;;;7.12;73.93262;93216.55;;;;
2022/03/31 02:37:28;;;;;;;35.5;26.65;;;;;;;7.12;73.93262;93216.55;;;;
2022/03/31 02:38:28;;;;;;;35.5;26.65;;;;;;;7.12;73.93262;93216.55;;;;
2022/03/31 02:39:29;;;;;;;35.5;26.65;;;;;;;7.12;73.93262;93216.55;;;;
2022/03/31 02:40:30;;;;;;;35.5;26.65;;;;;;;7.12;73.93262;93216.55;;;;
2022/03/31 02:41:31;;;;;;;35.5;26.65;;;;;;;7.12;73.93262;93216.55;;;;
2022/03/31 02:42:32;;;;;;;36.9;26.35;;;;;;;6.82;74.56055;93212.3;;;;
2022/03/31 02:43:33;;;;;;;36.9;26.35;;;;;;;6.82;74.56055;93212.3;;;;
2022/03/31 02:44:33;;;;;;;36.9;26.35;;;;;;;6.82;74.56055;93212.3;;;;
2022/03/31 02:45:34;;;;;;;36.9;26.35;;;;;;;6.82;74.56055;93212.3;;;;
2022/03/31 02:46:34;;;;;;;36.9;26.35;;;;;;;6.82;74.56055;93212.3;;;;
2022/03/31 02:47:35;;;;;;;36.9;26.35;;;;;;;6.82;74.56055;93212.3;;;;
2022/03/31 02:48:36;;;;;;;36.9;26.35;;;;;;;6.82;74.56055;93212.3;;;;
2022/03/31 02:49:36;;;;;;;36.9;26.35;;;;;;;6.82;74.56055;93212.3;;;;
2022/03/31 02:50:38;;;;;;;36.9;26.35;;;;;;;6.82;74.56055;93212.3;;;;
2022/03/31 02:51:38;;;;;;;36.9;26.35;;;;;;;6.82;74.56055;93212.3;;;;
2022/03/31 02:57:51;;;;;;;43.35;29.5;;;;;;;6.84;74.62891;93221.31;;;;
2022/03/31 02:58:52;;;;;;;43.35;29.5;;;;;;;6.84;74.62891;93221.31;;;;
2022/03/31 02:59:53;;;;;;;43.35;29.5;;;;;;;6.84;74.62891;93221.31;;;;
2022/03/31 03:00:54;;;;;;;43.35;29.5;;;;;;;6.84;74.62891;93221.31;;;;
2022/03/31 03:01:55;;;;;;;43.35;29.5;;;;;;;6.84;74.62891;93221.31;;;;
2022/03/31 03:02:55;;;;;;;43.35;29.5;;;;;;;6.84;74.62891;93221.31;;;;
2022/03/31 03:03:57;;;;;;;40.15;28.1;;;;;;;6.89;74.61523;93211.93;;;;
2022/03/31 03:04:58;;;;;;;40.15;28.1;;;;;;;6.89;74.61523;93211.93;;;;
2022/03/31 03:05:58;;;;;;;40.15;28.1;;;;;;;6.89;74.61523;93211.93;;;;
2022/03/31 03:06:59;;;;;;;40.15;28.1;;;;;;;6.89;74.61523;93211.93;;;;
2022/03/31 03:07:59;;;;;;;40.15;28.1;;;;;;;6.89;74.61523;93211.93;;;;
2022/03/31 03:09:00;;;;;;;40.15;28.1;;;;;;;6.89;74.61523;93211.93;;;;
2022/03/31 03:10:00;;;;;;;40.15;28.1;;;;;;;6.89;74.61523;93211.93;;;;
2022/03/31 03:11:01;;;;;;;40.15;28.1;;;;;;;6.89;74.61523;93211.93;;;;
2022/03/31 03:12:01;;;;;;;40.15;28.1;;;;;;;6.89;74.61523;93211.93;;;;
2022/03/31 03:13:03;;;;;;;40.15;28.1;;;;;;;6.89;74.61523;93211.93;;;;
2022/03/31 03:14:04;;;;;;;41.45;28.15;;;;;;;6.85;74.81934;93187.25;;;;
2022/03/31 03:15:05;;;;;;;41.45;28.15;;;;;;;6.85;74.81934;93187.25;;;;
2022/03/31 03:16:08;;;;;;;41.45;28.15;;;;;;;6.85;74.81934;93187.25;;;;
2022/03/31 03:17:10;;;;;;;41.45;28.15;;;;;;;6.85;74.81934;93187.25;;;;
2022/03/31 03:18:10;;;;;;;41.45;28.15;;;;;;;6.85;74.81934;93187.25;;;;
2022/03/31 03:19:11;;;;;;;41.45;28.15;;;;;;;6.85;74.81934;93187.25;;;;
2022/03/31 03:20:13;;;;;;;41.45;28.15;;;;;;;6.85;74.81934;93187.25;;;;
2022/03/31 03:21:15;;;;;;;41.45;28.15;;;;;;;6.85;74.81934;93187.25;;;;
2022/03/31 03:22:16;;;;;;;41.45;28.15;;;;;;;6.85;74.81934;93187.25;;;;
2022/03/31 03:23:16;;;;;;;41.45;28.15;;;;;;;6.85;74.81934;93187.25;;;;
2022/03/31 03:24:17;;;;;;;41.45;28.15;;;;;;;6.85;74.81934;93187.25;;;;
2022/03/31 03:25:18;;;;;;;39.2;28.05;;;;;;;6.91;75.08594;93188.86;;;;
2022/03/31 03:26:20;;;;;;;39.2;28.05;;;;;;;6.91;75.08594;93188.86;;;;
2022/03/31 03:27:21;;;;;;;39.2;28.05;;;;;;;6.91;75.08594;93188.86;;;;
2022/03/31 03:28:22;;;;;;;39.2;28.05;;;;;;;6.91;75.08594;93188.86;;;;
2022/03/31 03:29:22;;;;;;;39.2;28.05;;;;;;;6.91;75.08594;93188.86;;;;
2022/03/31 03:30:23;;;;;;;39.2;28.05;;;;;;;6.91;75.08594;93188.86;;;;
2022/03/31 03:31:23;;;;;;;39.2;28.05;;;;;;;6.91;75.08594;93188.86;;;;
2022/03/31 03:32:24;;;;;;;39.2;28.05;;;;;;;6.91;75.08594;93188.86;;;;
2022/03/31 03:33:25;;;;;;;39.2;28.05;;;;;;;6.91;75.08594;93188.86;;;;
2022/03/31 03:34:25;;;;;;;39.2;28.05;;;;;;;6.91;75.08594;93188.86;;;;
2022/03/31 03:35:26;;;;;;;39.2;28.05;;;;;;;6.91;75.08594;93188.86;;;;
2022/03/31 03:36:27;;;;;;;39.2;28.05;;;;;;;6.91;75.08594;93188.86;;;;
2022/03/31 03:37:27;;;;;;;39.2;28.05;;;;;;;6.91;75.08594;93188.86;;;;
2022/03/31 03:38:28;;;;;;;39.2;28.05;;;;;;;6.91;75.08594;93188.86;;;;
2022/03/31 03:39:28;;;;;;;39.2;28.05;;;;;;;6.91;75.08594;93188.86;;;;
2022/03/31 03:40:31;;;;;;;39.2;28.05;;;;;;;6.91;75.08594;93188.86;;;;
2022/03/31 03:41:32;;;;;;;39.2;28.05;;;;;;;6.91;75.08594;93188.86;;;;
2022/03/31 03:42:32;;;;;;;39.2;28.05;;;;;;;6.91;75.08594;93188.86;;;;
2022/03/31 03:43:33;;;;;;;39.2;28.05;;;;;;;6.91;75.08594;93188.86;;;;
2022/03/31 03:44:35;;;;;;;39.2;28.05;;;;;;;6.91;75.08594;93188.86;;;;
2022/03/31 03:45:36;;;;;;;39.2;28.05;;;;;;;6.91;75.08594;93188.86;;;;
2022/03/31 03:46:37;;;;;;;41.85;28.6;;;;;;;7.07;75.23047;93177.09;;;;
2022/03/31 03:47:37;;;;;;;41.85;28.6;;;;;;;7.07;75.23047;93177.09;;;;
2022/03/31 03:48:38;;;;;;;41.85;28.6;;;;;;;7.07;75.23047;93177.09;;;;
2022/03/31 03:49:38;;;;;;;41.85;28.6;;;;;;;7.07;75.23047;93177.09;;;;
2022/03/31 03:50:39;;;;;;;41.85;28.6;;;;;;;7.07;75.23047;93177.09;;;;
2022/03/31 03:51:40;;;;;;;41.85;28.6;;;;;;;7.07;75.23047;93177.09;;;;
2022/03/31 03:52:40;;;;;;;41.85;28.6;;;;;;;7.07;75.23047;93177.09;;;;
2022/03/31 03:53:41;;;;;;;41.85;28.6;;;;;;;7.07;75.23047;93177.09;;;;
2022/03/31 03:54:41;;;;;;;41.85;28.6;;;;;;;7.07;75.23047;93177.09;;;;
2022/03/31 03:55:42;;;;;;;41.85;28.6;;;;;;;7.07;75.23047;93177.09;;;;
2022/03/31 03:56:43;;;;;;;43.64999;29.05;;;;;;;6.98;75.24609;93168.91;;;;
2022/03/31 03:57:43;;;;;;;43.64999;29.05;;;;;;;6.98;75.24609;93168.91;;;;
2022/03/31 03:58:44;;;;;;;43.64999;29.05;;;;;;;6.98;75.24609;93168.91;;;;
2022/03/31 03:59:44;;;;;;;43.64999;29.05;;;;;;;6.98;75.24609;93168.91;;;;
2022/03/31 04:00:45;;;;;;;43.64999;29.05;;;;;;;6.98;75.24609;93168.91;;;;
2022/03/31 04:01:46;;;;;;;43.64999;29.05;;;;;;;6.98;75.24609;93168.91;;;;
2022/03/31 04:02:46;;;;;;;43.64999;29.05;;;;;;;6.98;75.24609;93168.91;;;;
2022/03/31 04:03:47;;;;;;;43.64999;29.05;;;;;;;6.98;75.24609;93168.91;;;;
2022/03/31 04:04:47;;;;;;;43.64999;29.05;;;;;;;6.98;75.24609;93168.91;;;;
2022/03/31 04:05:50;;;;;;;43.64999;29.05;;;;;;;6.98;75.24609;93168.91;;;;
2022/03/31 04:06:50;;;;;;;43.64999;29.05;;;;;;;6.98;75.24609;93168.91;;;;
2022/03/31 04:07:51;;;;;;;41.89999;28.2;;;;;;;6.82;75.54688;93169.92;;;;
2022/03/31 04:08:51;;;;;;;41.89999;28.2;;;;;;;6.82;75.54688;93169.92;;;;
2022/03/31 04:09:52;;;;;;;41.89999;28.2;;;;;;;6.82;75.54688;93169.92;;;;
2022/03/31 04:10:52;;;;;;;41.89999;28.2;;;;;;;6.82;75.54688;93169.92;;;;
2022/03/31 04:11:53;;;;;;;41.89999;28.2;;;;;;;6.82;75.54688;93169.92;;;;
2022/03/31 04:12:53;;;;;;;41.89999;28.2;;;;;;;6.82;75.54688;93169.92;;;;
2022/03/31 04:13:54;;;;;;;41.89999;28.2;;;;;;;6.82;75.54688;93169.92;;;;
2022/03/31 04:14:54;;;;;;;41.89999;28.2;;;;;;;6.82;75.54688;93169.92;;;;
2022/03/31 04:15:55;;;;;;;41.89999;28.2;;;;;;;6.82;75.54688;93169.92;;;;
2022/03/31 04:16:56;;;;;;;41.89999;28.2;;;;;;;6.82;75.54688;93169.92;;;;
2022/03/31 04:17:57;;;;;;;41.89999;28.2;;;;;;;6.82;75.54688;93169.92;;;;
2022/03/31 04:18:57;;;;;;;41.89999;28.2;;;;;;;6.82;75.54688;93169.92;;;;
2022/03/31 04:19:57;;;;;;;41.89999;28.2;;;;;;;6.82;75.54688;93169.92;;;;
2022/03/31 04:21:01;;;;;;;41.89999;28.2;;;;;;;6.82;75.54688;93169.92;;;;
2022/03/31 04:22:01;;;;;;;41.89999;28.2;;;;;;;6.82;75.54688;93169.92;;;;
2022/03/31 04:23:02;;;;;;;41.89999;28.2;;;;;;;6.82;75.54688;93169.92;;;;
2022/03/31 04:24:03;;;;;;;41.89999;28.2;;;;;;;6.82;75.54688;93169.92;;;;
2022/03/31 04:25:05;;;;;;;41.89999;28.2;;;;;;;6.82;75.54688;93169.92;;;;
2022/03/31 04:26:08;;;;;;;41.89999;28.2;;;;;;;6.82;75.54688;93169.92;;;;
2022/03/31 04:27:09;;;;;;;41.89999;28.2;;;;;;;6.82;75.54688;93169.92;;;;
2022/03/31 04:28:10;;;;;;;41.89999;28.2;;;;;;;6.82;75.54688;93169.92;;;;
2022/03/31 04:29:11;;;;;;;46.65;29.5;;;;;;;6.68;75.94629;93166.13;;;;
2022/03/31 04:30:12;;;;;;;46.65;29.5;;;;;;;6.68;75.94629;93166.13;;;;
2022/03/31 04:31:13;;;;;;;46.65;29.5;;;;;;;6.68;75.94629;93166.13;;;;
2022/03/31 04:32:13;;;;;;;46.65;29.5;;;;;;;6.68;75.94629;93166.13;;;;
2022/03/31 04:33:14;;;;;;;46.65;29.5;;;;;;;6.68;75.94629;93166.13;;;;
2022/03/31 04:34:15;;;;;;;46.65;29.5;;;;;;;6.68;75.94629;93166.13;;;;
2022/03/31 04:35:16;;;;;;;46.65;29.5;;;;;;;6.68;75.94629;93166.13;;;;
2022/03/31 04:36:17;;;;;;;46.65;29.5;;;;;;;6.68;75.94629;93166.13;;;;
2022/03/31 04:37:18;;;;;;;46.65;29.5;;;;;;;6.68;75.94629;93166.13;;;;
2022/03/31 04:38:19;;;;;;;46.65;29.5;;;;;;;6.68;75.94629;93166.13;;;;
2022/03/31 04:39:19;;;;;;;46.65;29.5;;;;;;;6.68;75.94629;93166.13;;;;
2022/03/31 04:40:20;;;;;;;44.75;29.45;;;;;;;6.72;76.04785;93169.9;;;;
2022/03/31 04:41:20;;;;;;;44.75;29.45;;;;;;;6.72;76.04785;93169.9;;;;
2022/03/31 04:42:21;;;;;;;44.75;29.45;;;;;;;6.72;76.04785;93169.9;;;;
2022/03/31 04:43:21;;;;;;;44.75;29.45;;;;;;;6.72;76.04785;93169.9;;;;
2022/03/31 04:44:22;;;;;;;44.75;29.45;;;;;;;6.72;76.04785;93169.9;;;;
2022/03/31 04:45:22;;;;;;;44.75;29.45;;;;;;;6.72;76.04785;93169.9;;;;
2022/03/31 04:46:23;;;;;;;44.75;29.45;;;;;;;6.72;76.04785;93169.9;;;;
2022/03/31 04:47:24;;;;;;;44.75;29.45;;;;;;;6.72;76.04785;93169.9;;;;
2022/03/31 04:48:24;;;;;;;44.75;29.45;;;;;;;6.72;76.04785;93169.9;;;;
2022/03/31 04:49:25;;;;;;;44.75;29.45;;;;;;;6.72;76.04785;93169.9;;;;
2022/03/31 04:50:26;;;;;;;45.84999;30.2;;;;;;;6.79;76.10352;93159.2;;;;
2022/03/31 04:51:26;;;;;;;45.84999;30.2;;;;;;;6.79;76.10352;93159.2;;;;
2022/03/31 04:52:27;;;;;;;45.84999;30.2;;;;;;;6.79;76.10352;93159.2;;;;
2022/03/31 04:53:28;;;;;;;45.84999;30.2;;;;;;;6.79;76.10352;93159.2;;;;
2022/03/31 04:54:28;;;;;;;45.84999;30.2;;;;;;;6.79;76.10352;93159.2;;;;
2022/03/31 04:55:29;;;;;;;45.84999;30.2;;;;;;;6.79;76.10352;93159.2;;;;
2022/03/31 04:56:30;;;;;;;45.84999;30.2;;;;;;;6.79;76.10352;93159.2;;;;
2022/03/31 04:57:30;;;;;;;45.84999;30.2;;;;;;;6.79;76.10352;93159.2;;;;
2022/03/31 04:58:31;;;;;;;45.84999;30.2;;;;;;;6.79;76.10352;93159.2;;;;
2022/03/31 04:59:31;;;;;;;45.84999;30.2;;;;;;;6.79;76.10352;93159.2;;;;
2022/03/31 05:00:32;;;;;;;45.84999;30.2;;;;;;;6.79;76.10352;93159.2;;;;
2022/03/31 05:01:33;;;;;;;44.95;30.1;;;;;;;6.83;76.21582;93164.84;;;;
2022/03/31 05:02:33;;;;;;;44.95;30.1;;;;;;;6.83;76.21582;93164.84;;;;
2022/03/31 05:03:33;;;;;;;44.95;30.1;;;;;;;6.83;76.21582;93164.84;;;;
2022/03/31 05:04:34;;;;;;;44.95;30.1;;;;;;;6.83;76.21582;93164.84;;;;
2022/03/31 05:05:34;;;;;;;44.95;30.1;;;;;;;6.83;76.21582;93164.84;;;;
2022/03/31 05:06:35;;;;;;;44.95;30.1;;;;;;;6.83;76.21582;93164.84;;;;
2022/03/31 05:07:36;;;;;;;44.95;30.1;;;;;;;6.83;76.21582;93164.84;;;;
2022/03/31 05:08:36;;;;;;;44.95;30.1;;;;;;;6.83;76.21582;93164.84;;;;
2022/03/31 05:09:37;;;;;;;44.95;30.1;;;;;;;6.83;76.21582;93164.84;;;;
2022/03/31 05:10:38;;;;;;;44.95;30.1;;;;;;;6.83;76.21582;93164.84;;;;
2022/03/31 05:11:38;;;;;;;45.7;30.75001;;;;;;;6.88;76.33008;93154.13;;;;
2022/03/31 05:12:39;;;;;;;45.7;30.75001;;;;;;;6.88;76.33008;93154.13;;;;
2022/03/31 05:13:39;;;;;;;45.7;30.75001;;;;;;;6.88;76.33008;93154.13;;;;
2022/03/31 05:14:40;;;;;;;45.7;30.75001;;;;;;;6.88;76.33008;93154.13;;;;
2022/03/31 05:15:41;;;;;;;45.7;30.75001;;;;;;;6.88;76.33008;93154.13;;;;
2022/03/31 05:16:41;;;;;;;45.7;30.75001;;;;;;;6.88;76.33008;93154.13;;;;
2022/03/31 05:17:42;;;;;;;45.7;30.75001;;;;;;;6.88;76.33008;93154.13;;;;
2022/03/31 05:18:43;;;;;;;45.7;30.75001;;;;;;;6.88;76.33008;93154.13;;;;
2022/03/31 05:19:43;;;;;;;45.7;30.75001;;;;;;;6.88;76.33008;93154.13;;;;
2022/03/31 05:20:44;;;;;;;45.7;30.75001;;;;;;;6.88;76.33008;93154.13;;;;
2022/03/31 05:21:45;;;;;;;45.7;30.75001;;;;;;;6.88;76.33008;93154.13;;;;
2022/03/31 05:22:45;;;;;;;47.75;30.95;;;;;;;6.97;76.37891;93154.69;;;;
2022/03/31 05:23:46;;;;;;;47.75;30.95;;;;;;;6.97;76.37891;93154.69;;;;
2022/03/31 05:24:46;;;;;;;47.75;30.95;;;;;;;6.97;76.37891;93154.69;;;;
2022/03/31 05:25:48;;;;;;;47.75;30.95;;;;;;;6.97;76.37891;93154.69;;;;
2022/03/31 05:26:52;;;;;;;47.75;30.95;;;;;;;6.97;76.37891;93154.69;;;;
2022/03/31 05:27:52;;;;;;;47.75;30.95;;;;;;;6.97;76.37891;93154.69;;;;
2022/03/31 05:28:53;;;;;;;47.75;30.95;;;;;;;6.97;76.37891;93154.69;;;;
2022/03/31 05:29:54;;;;;;;47.75;30.95;;;;;;;6.97;76.37891;93154.69;;;;
2022/03/31 05:30:54;;;;;;;47.75;30.95;;;;;;;6.97;76.37891;93154.69;;;;
2022/03/31 05:31:57;;;;;;;47.75;30.95;;;;;;;6.97;76.37891;93154.69;;;;
2022/03/31 05:32:59;;;;;;;40.35;28.3;;;;;;;7.13;76.46875;93151.07;;;;
2022/03/31 05:34:00;;;;;;;40.35;28.3;;;;;;;7.13;76.46875;93151.07;;;;
2022/03/31 05:35:00;;;;;;;40.35;28.3;;;;;;;7.13;76.46875;93151.07;;;;
2022/03/31 05:36:01;;;;;;;40.35;28.3;;;;;;;7.13;76.46875;93151.07;;;;
2022/03/31 05:37:05;;;;;;;40.35;28.3;;;;;;;7.13;76.46875;93151.07;;;;
2022/03/31 05:38:06;;;;;;;40.35;28.3;;;;;;;7.13;76.46875;93151.07;;;;
2022/03/31 05:39:07;;;;;;;40.35;28.3;;;;;;;7.13;76.46875;93151.07;;;;
2022/03/31 05:40:08;;;;;;;40.35;28.3;;;;;;;7.13;76.46875;93151.07;;;;
2022/03/31 05:41:10;;;;;;;40.35;28.3;;;;;;;7.13;76.46875;93151.07;;;;
2022/03/31 05:42:10;;;;;;;40.35;28.3;;;;;;;7.13;76.46875;93151.07;;;;
2022/03/31 05:43:11;;;;;;;40.35;28.3;;;;;;;7.13;76.46875;93151.07;;;;
2022/03/31 05:44:11;;;;;;;39;27.15;;;;;;;7.31;76.50391;93146.41;;;;
2022/03/31 05:45:12;;;;;;;39;27.15;;;;;;;7.31;76.50391;93146.41;;;;
2022/03/31 05:46:13;;;;;;;39;27.15;;;;;;;7.31;76.50391;93146.41;;;;
2022/03/31 05:47:13;;;;;;;39;27.15;;;;;;;7.31;76.50391;93146.41;;;;